createdAt,value
2019-05-20T00:02:28.029Z,7.70
2019-05-20T00:04:54.375Z,7.10
2019-05-20T00:07:24.061Z,7.00
2019-05-20T00:09:53.594Z,6.53
2019-05-20T00:12:23.154Z,7.33
2019-05-20T00:14:52.706Z,6.57
2019-05-20T00:17:22.440Z,5.97
2019-05-20T00:19:52.306Z,5.97
2019-05-20T00:22:21.902Z,7.03
2019-05-20T00:24:51.471Z,6.20
2019-05-20T00:27:21.107Z,6.67
2019-05-20T00:29:50.860Z,6.90
2019-05-20T00:32:20.431Z,6.83
2019-05-20T00:34:49.961Z,5.77
2019-05-20T00:37:19.512Z,6.50
2019-05-20T00:39:49.250Z,5.80
2019-05-20T00:42:18.770Z,6.83
2019-05-20T00:44:48.322Z,7.63
2019-05-20T00:47:17.886Z,6.70
2019-05-20T00:49:47.574Z,7.30
2019-05-20T00:52:17.178Z,6.43
2019-05-20T00:54:46.724Z,7.20
2019-05-20T00:57:16.342Z,6.77
2019-05-20T00:59:46.320Z,6.63
2019-05-20T01:02:16.847Z,6.37
2019-05-20T01:04:46.404Z,7.57
2019-05-20T01:07:16.080Z,6.70
2019-05-20T01:09:45.957Z,7.37
2019-05-20T01:12:15.498Z,7.77
2019-05-20T01:14:45.187Z,7.83
2019-05-20T01:17:14.762Z,7.97
2019-05-20T01:19:44.319Z,6.53
2019-05-20T01:22:13.985Z,6.43
2019-05-20T01:24:43.591Z,6.30
2019-05-20T01:27:13.422Z,6.10
2019-05-20T01:29:43.122Z,7.03
2019-05-20T01:32:12.788Z,7.13
2019-05-20T01:34:42.363Z,7.03
2019-05-20T01:37:12.270Z,7.40
2019-05-20T01:39:42.085Z,7.03
2019-05-20T01:42:12.009Z,6.70
2019-05-20T01:44:41.551Z,7.40
2019-05-20T01:47:11.484Z,6.80
2019-05-20T01:49:41.012Z,7.37
2019-05-20T01:52:10.633Z,7.20
2019-05-20T01:54:40.227Z,7.07
2019-05-20T01:57:09.874Z,6.87
2019-05-20T01:59:39.538Z,6.50
2019-05-20T02:02:09.511Z,6.13
2019-05-20T02:04:40.329Z,6.97
2019-05-20T02:07:09.978Z,7.70
2019-05-20T02:09:39.616Z,7.87
2019-05-20T02:12:09.730Z,7.10
2019-05-20T02:14:44.839Z,5.80
2019-05-20T02:17:14.397Z,7.20
2019-05-20T02:19:43.929Z,6.53
2019-05-20T02:22:13.562Z,7.17
2019-05-20T02:24:43.166Z,6.87
2019-05-20T02:27:12.729Z,8.30
2019-05-20T02:29:42.527Z,7.77
2019-05-20T02:32:12.223Z,7.80
2019-05-20T02:34:41.813Z,7.73
2019-05-20T02:37:11.447Z,8.00
2019-05-20T02:39:40.992Z,7.93
2019-05-20T02:42:10.584Z,8.70
2019-05-20T02:44:40.119Z,7.50
2019-05-20T02:47:09.660Z,7.23
2019-05-20T02:49:39.234Z,7.10
2019-05-20T02:52:09.112Z,7.27
2019-05-20T02:54:38.663Z,8.40
2019-05-20T02:57:08.918Z,7.43
2019-05-20T02:59:38.454Z,8.20
2019-05-20T03:02:08.004Z,7.43
2019-05-20T03:04:37.897Z,8.00
2019-05-20T03:07:07.753Z,6.73
2019-05-20T03:09:37.543Z,6.47
2019-05-20T03:12:07.088Z,7.43
2019-05-20T03:14:36.612Z,7.20
2019-05-20T03:17:06.129Z,8.57
2019-05-20T03:19:35.642Z,7.60
2019-05-20T03:22:05.285Z,7.00
2019-05-20T03:24:34.863Z,7.23
2019-05-20T03:27:04.403Z,7.30
2019-05-20T03:29:33.950Z,7.40
2019-05-20T03:32:03.611Z,7.57
2019-05-20T03:34:50.650Z,7.23
2019-05-20T03:37:05.461Z,7.43
2019-05-20T03:39:35.045Z,7.70
2019-05-20T03:42:07.097Z,7.83
2019-05-20T03:44:36.695Z,7.93
2019-05-20T03:47:06.334Z,8.67
2019-05-20T03:49:35.972Z,8.40
2019-05-20T03:52:05.770Z,7.67
2019-05-20T03:54:35.325Z,8.30
2019-05-20T03:57:04.850Z,7.60
2019-05-20T03:59:34.687Z,9.30
2019-05-20T04:02:04.474Z,9.00
2019-05-20T04:04:34.038Z,8.73
2019-05-20T04:07:03.974Z,7.70
2019-05-20T04:09:33.612Z,7.50
2019-05-20T04:12:03.194Z,7.03
2019-05-20T04:14:32.744Z,7.80
2019-05-20T04:17:02.263Z,7.37
2019-05-20T04:19:31.802Z,8.13
2019-05-20T04:22:01.352Z,7.80
2019-05-20T04:24:30.910Z,7.63
2019-05-20T04:27:01.234Z,7.70
2019-05-20T04:29:30.807Z,7.37
2019-05-20T04:32:00.422Z,8.73
2019-05-20T04:34:31.171Z,8.80
2019-05-20T04:37:01.018Z,8.13
2019-05-20T04:39:30.804Z,8.47
2019-05-20T04:42:00.372Z,7.93
2019-05-20T04:44:29.914Z,8.30
2019-05-20T04:46:59.486Z,9.30
2019-05-20T04:49:29.221Z,7.97
2019-05-20T04:51:58.761Z,8.00
2019-05-20T04:54:28.362Z,8.03
2019-05-20T04:56:58.224Z,7.57
2019-05-20T04:59:27.778Z,6.67
2019-05-20T05:01:57.355Z,9.03
2019-05-20T05:04:27.539Z,8.13
2019-05-20T05:06:57.066Z,8.27
2019-05-20T05:09:26.670Z,8.37
2019-05-20T05:11:59.466Z,8.47
2019-05-20T05:14:29.114Z,7.80
2019-05-20T05:16:59.256Z,9.13
2019-05-20T05:19:28.870Z,8.60
2019-05-20T05:21:58.777Z,8.40
2019-05-20T05:24:28.914Z,7.50
2019-05-20T05:26:58.499Z,7.83
2019-05-20T05:29:28.761Z,8.67
2019-05-20T05:31:58.690Z,9.37
2019-05-20T05:34:31.338Z,8.13
2019-05-20T05:37:01.072Z,8.60
2019-05-20T05:39:30.627Z,7.80
2019-05-20T05:42:06.310Z,8.50
2019-05-20T05:44:35.940Z,8.77
2019-05-20T05:47:06.065Z,7.30
2019-05-20T05:49:35.978Z,8.23
2019-05-20T05:52:05.554Z,9.50
2019-05-20T05:54:35.254Z,8.23
2019-05-20T05:57:04.843Z,9.40
2019-05-20T05:59:34.553Z,8.27
2019-05-20T06:02:04.202Z,7.97
2019-05-20T06:04:44.736Z,7.90
2019-05-20T06:07:15.058Z,9.23
2019-05-20T06:09:44.958Z,9.60
2019-05-20T06:12:14.953Z,8.97
2019-05-20T06:14:45.331Z,7.57
2019-05-20T06:17:15.244Z,8.03
2019-05-20T06:19:45.116Z,8.67
2019-05-20T06:22:14.882Z,8.43
2019-05-20T06:24:44.787Z,8.40
2019-05-20T06:27:14.437Z,7.80
2019-05-20T06:29:43.981Z,7.60
2019-05-20T06:32:13.520Z,7.77
2019-05-20T06:34:43.251Z,7.27
2019-05-20T06:37:14.875Z,7.83
2019-05-20T06:39:44.638Z,7.73
2019-05-20T06:42:14.278Z,5.90
2019-05-20T06:44:52.855Z,8.03
2019-05-20T06:47:17.280Z,7.97
2019-05-20T06:49:47.232Z,8.20
2019-05-20T06:52:17.090Z,7.80
2019-05-20T06:54:46.707Z,7.07
2019-05-20T06:57:16.378Z,7.30
2019-05-20T06:59:46.561Z,7.50
2019-05-20T07:02:16.395Z,8.37
2019-05-20T07:04:45.950Z,6.87
2019-05-20T07:07:20.938Z,8.33
2019-05-20T07:09:47.183Z,7.50
2019-05-20T07:12:20.220Z,7.80
2019-05-20T07:14:49.823Z,7.23
2019-05-20T07:17:19.761Z,7.83
2019-05-20T07:19:49.942Z,7.27
2019-05-20T07:22:19.721Z,7.40
2019-05-20T07:24:49.495Z,8.60
2019-05-20T07:27:19.169Z,6.40
2019-05-20T07:29:48.993Z,6.53
2019-05-20T07:32:18.720Z,7.60
2019-05-20T07:34:48.436Z,6.90
2019-05-20T07:37:18.328Z,8.63
2019-05-20T07:39:48.140Z,8.00
2019-05-20T07:42:18.107Z,7.23
2019-05-20T07:44:47.944Z,8.47
2019-05-20T07:47:17.618Z,6.57
2019-05-20T07:49:47.224Z,13.23
2019-05-20T07:52:17.188Z,8.33
2019-05-20T07:54:46.774Z,8.13
2019-05-20T07:57:16.647Z,8.47
2019-05-20T07:59:46.512Z,7.50
2019-05-20T08:02:16.196Z,7.27
2019-05-20T08:04:54.421Z,8.73
2019-05-20T08:07:35.675Z,7.17
2019-05-20T08:09:57.315Z,6.77
2019-05-20T08:12:26.887Z,6.70
2019-05-20T08:14:56.513Z,7.70
2019-05-20T08:17:26.073Z,7.60
2019-05-20T08:19:55.615Z,7.23
2019-05-20T08:22:25.497Z,6.90
2019-05-20T08:24:55.070Z,7.63
2019-05-20T08:27:24.770Z,8.20
2019-05-20T08:29:54.481Z,8.33
2019-05-20T08:32:24.316Z,7.70
2019-05-20T08:34:54.287Z,8.90
2019-05-20T08:37:24.034Z,7.80
2019-05-20T08:39:53.637Z,7.70
2019-05-20T08:42:23.170Z,9.70
2019-05-20T08:44:52.921Z,9.53
2019-05-20T08:47:22.494Z,10.13
2019-05-20T08:49:52.294Z,7.53
2019-05-20T08:52:22.067Z,6.63
2019-05-20T08:54:51.697Z,9.03
2019-05-20T08:57:21.366Z,10.10
2019-05-20T08:59:50.934Z,8.53
2019-05-20T09:02:20.604Z,7.67
2019-05-20T09:04:50.618Z,8.63
2019-05-20T09:07:20.204Z,8.83
2019-05-20T09:09:49.839Z,7.83
2019-05-20T09:12:28.152Z,9.37
2019-05-20T09:15:02.177Z,9.37
2019-05-20T09:17:31.890Z,7.70
2019-05-20T09:20:01.809Z,8.20
2019-05-20T09:22:31.932Z,7.07
2019-05-20T09:25:01.841Z,7.80
2019-05-20T09:27:32.297Z,7.40
2019-05-20T09:30:02.842Z,8.77
2019-05-20T09:32:32.824Z,8.27
2019-05-20T09:35:10.537Z,9.27
2019-05-20T09:37:40.128Z,7.03
2019-05-20T09:40:09.941Z,9.60
2019-05-20T09:56:51.650Z,7.90
2019-05-20T09:59:21.383Z,8.27
2019-05-20T10:01:50.963Z,9.23
2019-05-20T10:04:20.651Z,9.53
2019-05-20T10:06:50.715Z,11.60
2019-05-20T10:09:20.580Z,8.83
2019-05-20T10:11:50.115Z,7.87
2019-05-20T10:14:19.646Z,7.80
2019-05-20T10:16:50.250Z,8.40
2019-05-20T10:19:20.083Z,9.20
2019-05-20T10:21:49.705Z,8.27
2019-05-20T10:24:19.406Z,8.77
2019-05-20T10:26:49.015Z,7.53
2019-05-20T10:29:18.635Z,8.40
2019-05-20T10:31:48.199Z,9.30
2019-05-20T10:34:18.302Z,9.60
2019-05-20T10:36:47.846Z,10.50
2019-05-20T10:39:17.571Z,9.07
2019-05-20T10:41:47.295Z,8.73
2019-05-20T10:44:16.870Z,8.30
2019-05-20T10:46:46.447Z,10.37
2019-05-20T10:49:16.051Z,9.67
2019-05-20T10:51:45.914Z,9.47
2019-05-20T10:54:15.531Z,9.10
2019-05-20T10:56:45.145Z,10.77
2019-05-20T10:59:14.802Z,10.23
2019-05-20T11:01:45.554Z,9.13
2019-05-20T11:04:16.701Z,11.43
2019-05-20T11:06:46.224Z,9.67
2019-05-20T11:09:15.786Z,12.53
2019-05-20T11:11:45.436Z,14.80
2019-05-20T11:14:15.085Z,10.87
2019-05-20T11:16:44.984Z,10.90
2019-05-20T11:19:14.899Z,9.37
2019-05-20T11:21:44.565Z,9.80
2019-05-20T11:24:14.332Z,11.60
2019-05-20T11:26:43.918Z,11.40
2019-05-20T11:29:14.468Z,9.70
2019-05-20T11:31:44.470Z,10.27
2019-05-20T11:34:14.054Z,10.00
2019-05-20T11:36:43.721Z,10.50
2019-05-20T11:39:30.576Z,10.50
2019-05-20T11:41:53.393Z,10.30
2019-05-20T11:44:16.267Z,9.80
2019-05-20T11:46:45.799Z,12.10
2019-05-20T11:49:15.490Z,11.30
2019-05-20T11:51:45.179Z,11.03
2019-05-20T11:54:14.718Z,10.70
2019-05-20T11:56:44.587Z,11.13
2019-05-20T11:59:14.235Z,12.13
2019-05-20T12:01:43.820Z,11.90
2019-05-20T12:04:16.628Z,10.87
2019-05-20T12:06:46.197Z,12.70
2019-05-20T12:09:16.931Z,12.37
2019-05-20T12:11:46.530Z,12.77
2019-05-20T12:14:16.234Z,12.50
2019-05-20T12:16:46.082Z,12.50
2019-05-20T12:19:15.697Z,11.20
2019-05-20T12:21:45.378Z,11.93
2019-05-20T12:24:15.036Z,11.40
2019-05-20T12:26:44.592Z,10.43
2019-05-20T12:29:14.438Z,12.10
2019-05-20T12:31:44.119Z,12.77
2019-05-20T12:34:16.764Z,16.27
2019-05-20T12:36:46.370Z,14.00
2019-05-20T12:39:15.977Z,14.27
2019-05-20T12:41:45.730Z,13.67
2019-05-20T12:44:15.355Z,12.47
2019-05-20T12:46:44.954Z,13.70
2019-05-20T12:49:14.792Z,11.97
2019-05-20T12:51:44.631Z,12.80
2019-05-20T12:54:14.315Z,15.03
2019-05-20T12:56:43.895Z,16.40
2019-05-20T12:59:13.488Z,15.80
2019-05-20T13:01:43.439Z,16.80
2019-05-20T13:04:19.006Z,17.93
2019-05-20T13:06:48.710Z,18.07
2019-05-20T13:09:18.966Z,16.90
2019-05-20T13:11:50.218Z,18.67
2019-05-20T13:14:20.059Z,14.60
2019-05-20T13:16:49.680Z,17.93
2019-05-20T13:19:20.410Z,17.73
2019-05-20T13:21:50.021Z,16.10
2019-05-20T13:24:19.573Z,16.03
2019-05-20T13:26:49.599Z,16.23
2019-05-20T13:29:19.317Z,17.57
2019-05-20T13:31:48.917Z,20.13
2019-05-20T13:34:18.847Z,17.67
2019-05-20T13:36:48.464Z,13.90
2019-05-20T13:39:18.189Z,14.07
2019-05-20T13:42:01.394Z,13.80
2019-05-20T13:44:30.956Z,12.93
2019-05-20T13:47:00.529Z,13.60
2019-05-20T13:49:30.226Z,12.50
2019-05-20T13:52:00.115Z,16.20
2019-05-20T13:54:29.742Z,15.27
2019-05-20T13:56:59.341Z,16.30
2019-05-20T13:59:28.906Z,16.00
2019-05-20T14:01:58.741Z,11.67
2019-05-20T14:04:33.004Z,13.77
2019-05-20T14:07:02.572Z,12.83
2019-05-20T14:09:33.203Z,13.17
2019-05-20T14:12:02.726Z,12.03
2019-05-20T14:14:32.346Z,10.83
2019-05-20T14:17:02.286Z,10.83
2019-05-20T14:19:31.875Z,11.80
2019-05-20T14:22:01.633Z,11.17
2019-05-20T14:24:31.290Z,13.03
2019-05-20T14:27:00.875Z,13.03
2019-05-20T14:29:30.383Z,14.60
2019-05-20T14:31:59.995Z,13.10
2019-05-20T14:34:29.590Z,11.77
2019-05-20T14:36:59.286Z,13.57
2019-05-20T14:39:28.893Z,14.13
2019-05-20T14:41:58.514Z,13.50
2019-05-20T14:44:28.263Z,7.83
2019-05-20T14:46:57.782Z,6.90
2019-05-20T14:49:27.510Z,8.17
2019-05-20T14:51:58.311Z,9.30
2019-05-20T14:54:27.818Z,8.83
2019-05-20T14:56:57.359Z,7.07
2019-05-20T14:59:26.909Z,6.93
2019-05-20T15:01:56.491Z,7.10
2019-05-20T15:04:26.139Z,6.47
2019-05-20T15:06:56.042Z,5.83
2019-05-20T15:09:25.707Z,5.70
2019-05-20T15:11:58.058Z,7.10
2019-05-20T15:14:27.578Z,8.17
2019-05-20T15:16:57.192Z,6.33
2019-05-20T15:19:26.796Z,8.53
2019-05-20T15:21:59.225Z,8.23
2019-05-20T15:24:28.920Z,7.83
2019-05-20T15:26:58.907Z,8.23
2019-05-20T15:29:28.721Z,8.10
2019-05-20T15:31:59.844Z,7.73
2019-05-20T15:34:29.632Z,8.37
2019-05-20T15:36:59.356Z,8.93
2019-05-20T15:39:28.999Z,9.77
2019-05-20T15:42:09.083Z,7.63
2019-05-20T15:44:44.558Z,7.90
2019-05-20T15:47:18.667Z,8.93
2019-05-20T15:49:46.623Z,7.70
2019-05-20T15:52:16.636Z,9.40
2019-05-20T15:54:49.788Z,10.47
2019-05-20T15:57:20.451Z,8.30
2019-05-20T15:59:50.086Z,8.07
2019-05-20T16:02:19.615Z,8.37
2019-05-20T16:04:50.648Z,7.63
2019-05-20T16:07:33.223Z,6.77
2019-05-20T16:10:04.690Z,6.07
2019-05-20T16:12:34.675Z,6.53
2019-05-20T16:15:18.575Z,5.93
2019-05-20T16:17:48.795Z,5.87
2019-05-20T16:23:10.891Z,5.90
2019-05-20T16:25:40.645Z,5.60
2019-05-20T16:28:13.068Z,6.07
2019-05-20T16:30:42.943Z,5.60
2019-05-20T16:33:12.544Z,6.27
2019-05-20T16:35:42.070Z,5.80
2019-05-20T16:38:11.970Z,6.17
2019-05-20T16:40:41.721Z,6.40
2019-05-20T16:43:11.318Z,6.90
2019-05-20T16:45:40.806Z,7.37
2019-05-20T16:48:10.629Z,6.87
2019-05-20T16:50:40.178Z,7.03
2019-05-20T16:53:09.795Z,6.67
2019-05-20T16:55:39.318Z,6.37
2019-05-20T16:58:09.012Z,6.60
2019-05-20T17:00:38.910Z,6.83
2019-05-20T17:03:09.427Z,6.60
2019-05-20T17:05:41.975Z,7.37
2019-05-20T17:08:11.578Z,6.37
2019-05-20T17:10:41.250Z,6.70
2019-05-20T17:13:14.265Z,6.30
2019-05-20T17:15:43.788Z,6.50
2019-05-20T17:18:15.255Z,6.40
2019-05-20T17:20:46.111Z,6.73
2019-05-20T17:23:16.379Z,5.90
2019-05-20T17:25:45.913Z,6.40
2019-05-20T17:28:15.538Z,7.00
2019-05-20T17:30:46.098Z,7.27
2019-05-20T17:33:15.988Z,7.00
2019-05-20T17:35:45.650Z,6.90
2019-05-20T17:38:15.341Z,7.03
2019-05-20T17:40:44.905Z,6.93
2019-05-20T17:43:15.784Z,6.93
2019-05-20T17:45:45.380Z,7.30
2019-05-20T17:48:15.074Z,7.40
2019-05-20T17:50:44.905Z,6.80
2019-05-20T17:53:14.608Z,7.47
2019-05-20T17:55:44.146Z,7.07
2019-05-20T17:58:13.779Z,7.07
2019-05-20T18:00:43.326Z,7.10
2019-05-20T18:03:13.983Z,6.70
2019-05-20T18:05:43.602Z,6.73
2019-05-20T18:08:13.190Z,7.70
2019-05-20T18:10:42.866Z,7.37
2019-05-20T18:13:12.406Z,7.10
2019-05-20T18:15:42.134Z,6.73
2019-05-20T18:18:11.983Z,7.13
2019-05-20T18:20:41.718Z,6.60
2019-05-20T18:23:12.454Z,7.00
2019-05-20T18:25:42.280Z,6.23
2019-05-20T18:28:11.937Z,7.03
2019-05-20T18:30:41.773Z,7.90
2019-05-20T18:33:11.291Z,6.67
2019-05-20T18:35:40.911Z,7.20
2019-05-20T18:38:10.703Z,6.43
2019-05-20T18:40:40.470Z,6.37
2019-05-20T18:43:10.001Z,7.60
2019-05-20T18:45:39.603Z,6.63
2019-05-20T18:48:09.106Z,6.87
2019-05-20T18:50:42.175Z,6.57
2019-05-20T18:53:11.760Z,6.73
2019-05-20T18:55:41.399Z,6.07
2019-05-20T18:58:10.894Z,6.47
2019-05-20T19:00:50.610Z,6.73
2019-05-20T19:03:26.848Z,6.77
2019-05-20T19:05:58.674Z,6.77
2019-05-20T19:08:28.198Z,7.43
2019-05-20T19:11:15.562Z,5.77
2019-05-20T19:13:48.508Z,6.60
2019-05-20T19:16:18.059Z,7.60
2019-05-20T19:18:49.843Z,6.73
2019-05-20T19:21:19.412Z,6.90
2019-05-20T19:23:48.918Z,6.93
2019-05-20T19:26:24.785Z,6.57
2019-05-20T19:28:49.731Z,5.97
2019-05-20T19:31:19.306Z,5.90
2019-05-20T19:33:48.867Z,7.20
2019-05-20T19:36:18.909Z,6.50
2019-05-20T19:38:48.611Z,6.70
2019-05-20T19:41:18.234Z,6.80
2019-05-20T19:43:48.338Z,6.27
2019-05-20T19:46:18.270Z,9.13
2019-05-20T19:48:49.139Z,5.70
2019-05-20T19:51:19.786Z,6.03
2019-05-20T19:53:49.807Z,4.75
2019-05-20T19:56:19.454Z,6.30
2019-05-20T19:58:50.046Z,6.43
2019-05-20T20:01:19.657Z,6.47
2019-05-20T20:03:49.358Z,6.03
2019-05-20T20:06:21.124Z,6.03
2019-05-20T20:08:51.211Z,6.23
2019-05-20T20:11:22.086Z,5.53
2019-05-20T20:13:51.663Z,8.20
2019-05-20T20:16:23.412Z,6.27
2019-05-20T20:18:52.996Z,6.93
2019-05-20T20:21:22.590Z,5.73
2019-05-20T20:23:52.463Z,7.40
2019-05-20T20:26:22.306Z,6.27
2019-05-20T20:28:51.882Z,6.90
2019-05-20T20:31:21.591Z,5.97
2019-05-20T20:33:51.286Z,6.50
2019-05-20T20:36:21.508Z,5.63
2019-05-20T20:38:51.231Z,5.83
2019-05-20T20:41:21.882Z,6.37
2019-05-20T20:43:51.586Z,6.80
2019-05-20T20:46:21.095Z,7.20
2019-05-20T20:48:50.670Z,6.10
2019-05-20T20:51:20.210Z,5.50
2019-05-20T20:53:49.771Z,6.43
2019-05-20T20:56:25.122Z,6.40
2019-05-20T20:58:50.817Z,6.53
2019-05-20T21:01:20.437Z,5.57
2019-05-20T21:03:49.942Z,6.00
2019-05-20T21:06:19.465Z,6.30
2019-05-20T21:08:48.983Z,6.20
2019-05-20T21:11:18.865Z,6.40
2019-05-20T21:13:48.545Z,6.27
2019-05-20T21:16:18.048Z,5.50
2019-05-20T21:18:47.614Z,5.70
2019-05-20T21:21:19.254Z,5.77
2019-05-20T21:23:48.764Z,6.03
2019-05-20T21:26:18.355Z,5.70
2019-05-20T21:28:47.979Z,5.40
2019-05-20T21:31:17.770Z,5.13
2019-05-20T21:33:47.430Z,5.40
2019-05-20T21:36:17.005Z,4.73
2019-05-20T21:38:48.121Z,5.10
2019-05-20T21:41:17.702Z,4.63
2019-05-20T21:43:47.367Z,5.73
2019-05-20T21:46:16.930Z,5.23
2019-05-20T21:48:46.550Z,4.80
2019-05-20T21:51:16.094Z,5.20
2019-05-20T21:53:45.702Z,5.33
2019-05-20T21:56:15.559Z,5.40
2019-05-20T21:58:45.200Z,5.50
2019-05-20T22:01:14.913Z,5.10
2019-05-20T22:03:44.506Z,5.57
2019-05-20T22:06:14.054Z,5.40
2019-05-20T22:08:43.594Z,4.93
2019-05-20T22:11:13.122Z,5.17
2019-05-20T22:13:42.642Z,5.23
2019-05-20T22:16:12.228Z,5.00
2019-05-20T22:18:41.814Z,4.50
2019-05-20T22:21:13.019Z,5.10
2019-05-20T22:24:07.407Z,4.77
2019-05-20T22:26:36.926Z,5.13
2019-05-20T22:29:06.615Z,4.50
2019-05-20T22:31:36.297Z,4.87
2019-05-20T22:34:05.816Z,5.63
2019-05-20T22:36:35.351Z,5.00
2019-05-20T22:39:06.739Z,4.70
2019-05-20T22:41:36.355Z,4.80
2019-05-20T22:44:05.861Z,5.40
2019-05-20T22:46:35.430Z,5.10
2019-05-20T22:49:05.146Z,5.20
2019-05-20T22:51:34.830Z,4.60
2019-05-20T22:54:04.456Z,4.87
2019-05-20T22:56:35.186Z,5.43
2019-05-20T22:59:04.778Z,4.37
2019-05-20T23:01:35.646Z,5.60
2019-05-20T23:04:05.758Z,5.60
2019-05-20T23:06:35.270Z,4.30
2019-05-20T23:09:05.947Z,5.10
2019-05-20T23:11:35.535Z,5.10
2019-05-20T23:14:05.061Z,5.10
2019-05-20T23:16:34.655Z,4.43
2019-05-20T23:19:05.290Z,4.23
2019-05-20T23:21:34.826Z,4.77
2019-05-20T23:24:04.366Z,4.00
2019-05-20T23:26:33.898Z,5.50
2019-05-20T23:29:03.477Z,4.43
2019-05-20T23:31:32.992Z,4.20
2019-05-20T23:34:12.333Z,3.30
2019-05-20T23:36:34.045Z,4.10
2019-05-20T23:39:06.038Z,3.90
2019-05-20T23:41:35.559Z,3.73
2019-05-20T23:44:05.112Z,3.60
2019-05-20T23:46:34.657Z,4.20
2019-05-20T23:49:04.231Z,3.33
2019-05-20T23:51:33.762Z,4.37
2019-05-20T23:54:03.270Z,3.30
2019-05-20T23:56:32.830Z,3.67
2019-05-20T23:59:02.779Z,3.50
